sensor_id;sensor_type;location;lat;lon;timestamp;P1;durP1;ratioP1;P2;durP2;ratioP2
9675;SDS011;4876;42.656;23.292;2022-11-20T00:00:06;4.13;;;1.50;;
9675;SDS011;4876;42.656;23.292;2022-11-20T00:02:33;2.40;;;1.50;;
9675;SDS011;4876;42.656;23.292;2022-11-20T00:05:00;5.67;;;1.60;;
9675;SDS011;4876;42.656;23.292;2022-11-20T00:07:27;5.33;;;1.23;;
9675;SDS011;4876;42.656;23.292;2022-11-20T00:09:54;3.20;;;1.40;;
9675;SDS011;4876;42.656;23.292;2022-11-20T00:12:22;3.47;;;1.57;;
9675;SDS011;4876;42.656;23.292;2022-11-20T00:14:48;2.90;;;1.47;;
9675;SDS011;4876;42.656;23.292;2022-11-20T00:17:15;3.13;;;1.57;;
9675;SDS011;4876;42.656;23.292;2022-11-20T00:19:42;6.00;;;1.60;;
9675;SDS011;4876;42.656;23.292;2022-11-20T00:22:09;2.40;;;1.37;;
9675;SDS011;4876;42.656;23.292;2022-11-20T00:24:35;5.50;;;1.77;;
9675;SDS011;4876;42.656;23.292;2022-11-20T00:27:02;5.10;;;1.70;;
9675;SDS011;4876;42.656;23.292;2022-11-20T00:29:30;3.23;;;1.13;;
9675;SDS011;4876;42.656;23.292;2022-11-20T00:31:57;2.33;;;1.47;;
9675;SDS011;4876;42.656;23.292;2022-11-20T00:34:24;3.20;;;1.43;;
9675;SDS011;4876;42.656;23.292;2022-11-20T00:36:51;1.60;;;1.20;;
9675;SDS011;4876;42.656;23.292;2022-11-20T00:39:17;5.30;;;1.60;;
9675;SDS011;4876;42.656;23.292;2022-11-20T00:41:44;4.10;;;1.37;;
9675;SDS011;4876;42.656;23.292;2022-11-20T00:44:11;4.27;;;1.80;;
9675;SDS011;4876;42.656;23.292;2022-11-20T00:46:39;3.30;;;1.40;;
9675;SDS011;4876;42.656;23.292;2022-11-20T00:49:06;4.73;;;1.63;;
9675;SDS011;4876;42.656;23.292;2022-11-20T00:51:32;7.70;;;1.67;;
9675;SDS011;4876;42.656;23.292;2022-11-20T00:53:59;5.73;;;1.40;;
9675;SDS011;4876;42.656;23.292;2022-11-20T00:56:27;1.77;;;0.93;;
9675;SDS011;4876;42.656;23.292;2022-11-20T00:58:54;5.20;;;1.30;;
9675;SDS011;4876;42.656;23.292;2022-11-20T01:01:21;2.53;;;1.30;;
9675;SDS011;4876;42.656;23.292;2022-11-20T01:03:52;3.70;;;1.53;;
9675;SDS011;4876;42.656;23.292;2022-11-20T01:06:20;7.70;;;1.70;;
9675;SDS011;4876;42.656;23.292;2022-11-20T01:08:49;3.43;;;1.53;;
9675;SDS011;4876;42.656;23.292;2022-11-20T01:11:19;2.00;;;1.23;;
9675;SDS011;4876;42.656;23.292;2022-11-20T01:13:47;4.00;;;1.77;;
9675;SDS011;4876;42.656;23.292;2022-11-20T01:16:16;3.63;;;1.50;;
9675;SDS011;4876;42.656;23.292;2022-11-20T01:18:45;2.83;;;1.47;;
9675;SDS011;4876;42.656;23.292;2022-11-20T01:21:16;2.30;;;1.27;;
9675;SDS011;4876;42.656;23.292;2022-11-20T01:23:44;3.03;;;1.43;;
9675;SDS011;4876;42.656;23.292;2022-11-20T01:26:12;3.47;;;1.83;;
9675;SDS011;4876;42.656;23.292;2022-11-20T01:28:41;2.40;;;1.40;;
9675;SDS011;4876;42.656;23.292;2022-11-20T01:31:12;3.43;;;1.30;;
9675;SDS011;4876;42.656;23.292;2022-11-20T01:33:41;2.53;;;1.50;;
9675;SDS011;4876;42.656;23.292;2022-11-20T01:36:09;1.00;;;0.97;;
9675;SDS011;4876;42.656;23.292;2022-11-20T01:38:38;2.03;;;1.27;;
9675;SDS011;4876;42.656;23.292;2022-11-20T01:41:05;3.47;;;1.37;;
9675;SDS011;4876;42.656;23.292;2022-11-20T01:43:33;1.43;;;1.00;;
9675;SDS011;4876;42.656;23.292;2022-11-20T01:46:01;2.73;;;1.13;;
9675;SDS011;4876;42.656;23.292;2022-11-20T01:48:34;1.83;;;1.10;;
9675;SDS011;4876;42.656;23.292;2022-11-20T01:51:04;1.67;;;1.00;;
9675;SDS011;4876;42.656;23.292;2022-11-20T01:53:38;2.10;;;1.27;;
9675;SDS011;4876;42.656;23.292;2022-11-20T01:56:05;3.07;;;1.20;;
9675;SDS011;4876;42.656;23.292;2022-11-20T01:58:37;1.20;;;1.10;;
9675;SDS011;4876;42.656;23.292;2022-11-20T02:01:07;3.60;;;1.10;;
9675;SDS011;4876;42.656;23.292;2022-11-20T02:03:34;2.10;;;1.20;;
9675;SDS011;4876;42.656;23.292;2022-11-20T02:06:04;2.70;;;1.10;;
9675;SDS011;4876;42.656;23.292;2022-11-20T02:08:38;3.60;;;1.30;;
9675;SDS011;4876;42.656;23.292;2022-11-20T02:11:05;3.50;;;1.27;;
9675;SDS011;4876;42.656;23.292;2022-11-20T02:13:32;2.43;;;1.13;;
9675;SDS011;4876;42.656;23.292;2022-11-20T02:16:18;2.30;;;0.97;;
9675;SDS011;4876;42.656;23.292;2022-11-20T02:18:49;5.20;;;1.43;;
9675;SDS011;4876;42.656;23.292;2022-11-20T02:21:23;5.00;;;1.20;;
9675;SDS011;4876;42.656;23.292;2022-11-20T02:24:02;3.27;;;1.20;;
9675;SDS011;4876;42.656;23.292;2022-11-20T02:26:37;2.77;;;1.50;;
9675;SDS011;4876;42.656;23.292;2022-11-20T02:29:07;3.20;;;1.33;;
9675;SDS011;4876;42.656;23.292;2022-11-20T02:31:35;2.37;;;1.30;;
9675;SDS011;4876;42.656;23.292;2022-11-20T02:34:03;3.10;;;0.93;;
9675;SDS011;4876;42.656;23.292;2022-11-20T02:36:30;3.53;;;1.20;;
9675;SDS011;4876;42.656;23.292;2022-11-20T02:39:00;2.13;;;1.40;;
9675;SDS011;4876;42.656;23.292;2022-11-20T02:41:33;3.57;;;1.47;;
9675;SDS011;4876;42.656;23.292;2022-11-20T02:44:01;4.90;;;1.40;;
9675;SDS011;4876;42.656;23.292;2022-11-20T02:46:29;3.03;;;1.10;;
9675;SDS011;4876;42.656;23.292;2022-11-20T02:48:55;3.97;;;1.27;;
9675;SDS011;4876;42.656;23.292;2022-11-20T02:51:22;2.47;;;0.97;;
9675;SDS011;4876;42.656;23.292;2022-11-20T02:53:49;5.70;;;1.50;;
9675;SDS011;4876;42.656;23.292;2022-11-20T02:56:16;5.03;;;1.30;;
9675;SDS011;4876;42.656;23.292;2022-11-20T03:01:30;2.57;;;1.33;;
9675;SDS011;4876;42.656;23.292;2022-11-20T03:03:57;4.00;;;1.40;;
9675;SDS011;4876;42.656;23.292;2022-11-20T03:06:24;3.03;;;1.60;;
9675;SDS011;4876;42.656;23.292;2022-11-20T03:08:50;7.00;;;1.90;;
9675;SDS011;4876;42.656;23.292;2022-11-20T03:11:17;3.33;;;1.70;;
9675;SDS011;4876;42.656;23.292;2022-11-20T03:13:44;4.00;;;1.60;;
9675;SDS011;4876;42.656;23.292;2022-11-20T03:16:13;3.67;;;1.73;;
9675;SDS011;4876;42.656;23.292;2022-11-20T03:18:41;5.40;;;1.73;;
9675;SDS011;4876;42.656;23.292;2022-11-20T03:21:08;4.60;;;1.30;;
9675;SDS011;4876;42.656;23.292;2022-11-20T03:23:36;2.43;;;1.43;;
9675;SDS011;4876;42.656;23.292;2022-11-20T03:26:07;3.57;;;1.70;;
9675;SDS011;4876;42.656;23.292;2022-11-20T03:28:35;7.20;;;1.90;;
9675;SDS011;4876;42.656;23.292;2022-11-20T03:31:05;6.23;;;1.50;;
9675;SDS011;4876;42.656;23.292;2022-11-20T03:33:34;4.53;;;1.50;;
9675;SDS011;4876;42.656;23.292;2022-11-20T03:36:01;5.33;;;1.60;;
9675;SDS011;4876;42.656;23.292;2022-11-20T03:38:29;2.80;;;1.43;;
9675;SDS011;4876;42.656;23.292;2022-11-20T03:40:58;4.63;;;1.13;;
9675;SDS011;4876;42.656;23.292;2022-11-20T03:43:26;2.53;;;1.20;;
9675;SDS011;4876;42.656;23.292;2022-11-20T03:45:53;7.03;;;1.80;;
9675;SDS011;4876;42.656;23.292;2022-11-20T03:48:19;2.50;;;1.30;;
9675;SDS011;4876;42.656;23.292;2022-11-20T03:50:48;5.70;;;1.27;;
9675;SDS011;4876;42.656;23.292;2022-11-20T03:53:15;2.97;;;1.30;;
9675;SDS011;4876;42.656;23.292;2022-11-20T03:55:42;2.73;;;1.07;;
9675;SDS011;4876;42.656;23.292;2022-11-20T03:58:09;5.57;;;1.43;;
9675;SDS011;4876;42.656;23.292;2022-11-20T04:00:36;5.57;;;1.20;;
9675;SDS011;4876;42.656;23.292;2022-11-20T04:03:03;3.03;;;1.47;;
9675;SDS011;4876;42.656;23.292;2022-11-20T04:05:30;3.43;;;1.30;;
9675;SDS011;4876;42.656;23.292;2022-11-20T04:08:00;4.67;;;1.33;;
9675;SDS011;4876;42.656;23.292;2022-11-20T04:10:27;3.40;;;1.30;;
9675;SDS011;4876;42.656;23.292;2022-11-20T04:12:54;2.80;;;1.20;;
9675;SDS011;4876;42.656;23.292;2022-11-20T04:15:20;3.37;;;1.17;;
9675;SDS011;4876;42.656;23.292;2022-11-20T04:17:47;3.43;;;0.90;;
9675;SDS011;4876;42.656;23.292;2022-11-20T04:20:14;4.73;;;1.47;;
9675;SDS011;4876;42.656;23.292;2022-11-20T04:22:41;3.10;;;1.40;;
9675;SDS011;4876;42.656;23.292;2022-11-20T04:25:09;3.00;;;1.17;;
9675;SDS011;4876;42.656;23.292;2022-11-20T04:27:36;1.87;;;1.20;;
9675;SDS011;4876;42.656;23.292;2022-11-20T04:30:03;2.03;;;1.30;;
9675;SDS011;4876;42.656;23.292;2022-11-20T04:32:30;6.10;;;1.30;;
9675;SDS011;4876;42.656;23.292;2022-11-20T04:34:57;5.70;;;1.30;;
9675;SDS011;4876;42.656;23.292;2022-11-20T04:37:24;2.30;;;1.30;;
9675;SDS011;4876;42.656;23.292;2022-11-20T04:39:50;6.23;;;1.47;;
9675;SDS011;4876;42.656;23.292;2022-11-20T04:42:19;1.57;;;1.07;;
9675;SDS011;4876;42.656;23.292;2022-11-20T04:44:54;2.27;;;1.40;;
9675;SDS011;4876;42.656;23.292;2022-11-20T04:47:21;3.70;;;1.33;;
9675;SDS011;4876;42.656;23.292;2022-11-20T04:49:48;10.30;;;1.70;;
9675;SDS011;4876;42.656;23.292;2022-11-20T04:52:15;3.50;;;1.20;;
9675;SDS011;4876;42.656;23.292;2022-11-20T04:54:42;2.20;;;1.33;;
9675;SDS011;4876;42.656;23.292;2022-11-20T04:57:08;5.20;;;1.30;;
9675;SDS011;4876;42.656;23.292;2022-11-20T04:59:36;4.83;;;1.43;;
9675;SDS011;4876;42.656;23.292;2022-11-20T05:02:03;2.00;;;1.37;;
9675;SDS011;4876;42.656;23.292;2022-11-20T05:04:30;5.73;;;1.50;;
9675;SDS011;4876;42.656;23.292;2022-11-20T05:06:57;1.60;;;1.10;;
9675;SDS011;4876;42.656;23.292;2022-11-20T05:09:24;2.10;;;1.20;;
9675;SDS011;4876;42.656;23.292;2022-11-20T05:11:50;3.50;;;1.17;;
9675;SDS011;4876;42.656;23.292;2022-11-20T05:14:17;1.20;;;1.10;;
9675;SDS011;4876;42.656;23.292;2022-11-20T05:16:45;2.57;;;1.00;;
9675;SDS011;4876;42.656;23.292;2022-11-20T05:19:12;2.43;;;1.10;;
9675;SDS011;4876;42.656;23.292;2022-11-20T05:21:39;1.53;;;1.10;;
9675;SDS011;4876;42.656;23.292;2022-11-20T05:24:06;4.07;;;1.07;;
9675;SDS011;4876;42.656;23.292;2022-11-20T05:26:33;1.67;;;1.00;;
9675;SDS011;4876;42.656;23.292;2022-11-20T05:28:59;2.47;;;1.30;;
9675;SDS011;4876;42.656;23.292;2022-11-20T05:31:26;7.37;;;1.40;;
9675;SDS011;4876;42.656;23.292;2022-11-20T05:33:55;10.27;;;1.30;;
9675;SDS011;4876;42.656;23.292;2022-11-20T05:36:22;1.37;;;1.10;;
9675;SDS011;4876;42.656;23.292;2022-11-20T05:38:49;4.37;;;1.13;;
9675;SDS011;4876;42.656;23.292;2022-11-20T05:41:17;2.63;;;1.30;;
9675;SDS011;4876;42.656;23.292;2022-11-20T05:43:45;1.83;;;1.07;;
9675;SDS011;4876;42.656;23.292;2022-11-20T05:46:14;2.50;;;1.40;;
9675;SDS011;4876;42.656;23.292;2022-11-20T05:48:43;1.90;;;1.20;;
9675;SDS011;4876;42.656;23.292;2022-11-20T05:51:13;5.63;;;1.30;;
9675;SDS011;4876;42.656;23.292;2022-11-20T05:53:42;2.53;;;1.23;;
9675;SDS011;4876;42.656;23.292;2022-11-20T05:56:10;2.93;;;1.13;;
9675;SDS011;4876;42.656;23.292;2022-11-20T05:58:38;4.70;;;1.33;;
9675;SDS011;4876;42.656;23.292;2022-11-20T06:01:07;4.27;;;1.40;;
9675;SDS011;4876;42.656;23.292;2022-11-20T06:03:34;8.70;;;1.20;;
9675;SDS011;4876;42.656;23.292;2022-11-20T06:06:02;3.23;;;1.37;;
9675;SDS011;4876;42.656;23.292;2022-11-20T06:08:32;3.63;;;1.30;;
9675;SDS011;4876;42.656;23.292;2022-11-20T06:11:02;6.77;;;1.50;;
9675;SDS011;4876;42.656;23.292;2022-11-20T06:13:29;3.93;;;1.27;;
9675;SDS011;4876;42.656;23.292;2022-11-20T06:15:56;6.90;;;1.50;;
9675;SDS011;4876;42.656;23.292;2022-11-20T06:18:23;5.27;;;1.40;;
9675;SDS011;4876;42.656;23.292;2022-11-20T06:20:58;8.10;;;1.60;;
9675;SDS011;4876;42.656;23.292;2022-11-20T06:23:27;6.57;;;1.57;;
9675;SDS011;4876;42.656;23.292;2022-11-20T06:25:56;4.40;;;1.40;;
9675;SDS011;4876;42.656;23.292;2022-11-20T06:28:22;4.63;;;1.50;;
9675;SDS011;4876;42.656;23.292;2022-11-20T06:30:49;1.77;;;1.20;;
9675;SDS011;4876;42.656;23.292;2022-11-20T06:33:16;4.43;;;1.60;;
9675;SDS011;4876;42.656;23.292;2022-11-20T06:35:43;3.50;;;1.57;;
9675;SDS011;4876;42.656;23.292;2022-11-20T06:38:09;4.07;;;1.20;;
9675;SDS011;4876;42.656;23.292;2022-11-20T06:40:39;2.60;;;1.07;;
9675;SDS011;4876;42.656;23.292;2022-11-20T06:43:09;5.57;;;1.27;;
9675;SDS011;4876;42.656;23.292;2022-11-20T06:45:36;5.20;;;1.50;;
9675;SDS011;4876;42.656;23.292;2022-11-20T06:48:03;6.90;;;1.30;;
9675;SDS011;4876;42.656;23.292;2022-11-20T06:50:30;3.73;;;1.30;;
9675;SDS011;4876;42.656;23.292;2022-11-20T06:52:59;4.40;;;1.30;;
9675;SDS011;4876;42.656;23.292;2022-11-20T06:55:27;6.27;;;1.13;;
9675;SDS011;4876;42.656;23.292;2022-11-20T06:57:53;5.27;;;1.50;;
9675;SDS011;4876;42.656;23.292;2022-11-20T07:00:22;1.83;;;1.10;;
9675;SDS011;4876;42.656;23.292;2022-11-20T07:02:48;2.00;;;1.20;;
9675;SDS011;4876;42.656;23.292;2022-11-20T07:05:15;3.20;;;1.10;;
9675;SDS011;4876;42.656;23.292;2022-11-20T07:07:42;1.33;;;0.90;;
9675;SDS011;4876;42.656;23.292;2022-11-20T07:10:09;5.40;;;1.10;;
9675;SDS011;4876;42.656;23.292;2022-11-20T07:12:36;2.87;;;1.03;;
9675;SDS011;4876;42.656;23.292;2022-11-20T07:15:03;5.37;;;1.00;;
9675;SDS011;4876;42.656;23.292;2022-11-20T07:17:32;3.67;;;1.53;;
9675;SDS011;4876;42.656;23.292;2022-11-20T07:19:59;5.40;;;1.40;;
9675;SDS011;4876;42.656;23.292;2022-11-20T07:22:26;10.07;;;1.80;;
9675;SDS011;4876;42.656;23.292;2022-11-20T07:24:53;4.67;;;1.43;;
9675;SDS011;4876;42.656;23.292;2022-11-20T07:27:20;4.97;;;1.33;;
9675;SDS011;4876;42.656;23.292;2022-11-20T07:29:46;9.03;;;1.77;;
9675;SDS011;4876;42.656;23.292;2022-11-20T07:32:13;4.87;;;1.50;;
9675;SDS011;4876;42.656;23.292;2022-11-20T07:34:41;6.30;;;1.93;;
9675;SDS011;4876;42.656;23.292;2022-11-20T07:37:08;3.27;;;1.30;;
9675;SDS011;4876;42.656;23.292;2022-11-20T07:39:35;4.27;;;1.70;;
9675;SDS011;4876;42.656;23.292;2022-11-20T07:42:02;4.27;;;1.47;;
9675;SDS011;4876;42.656;23.292;2022-11-20T07:44:28;8.50;;;2.07;;
9675;SDS011;4876;42.656;23.292;2022-11-20T07:46:55;5.70;;;1.30;;
9675;SDS011;4876;42.656;23.292;2022-11-20T07:49:22;5.63;;;1.50;;
9675;SDS011;4876;42.656;23.292;2022-11-20T07:51:51;2.23;;;1.50;;
9675;SDS011;4876;42.656;23.292;2022-11-20T07:54:19;4.47;;;1.60;;
9675;SDS011;4876;42.656;23.292;2022-11-20T07:56:46;6.93;;;1.47;;
9675;SDS011;4876;42.656;23.292;2022-11-20T07:59:13;1.53;;;0.93;;
9675;SDS011;4876;42.656;23.292;2022-11-20T08:01:40;5.13;;;1.80;;
9675;SDS011;4876;42.656;23.292;2022-11-20T08:04:07;2.50;;;1.10;;
9675;SDS011;4876;42.656;23.292;2022-11-20T08:06:34;4.13;;;1.53;;
9675;SDS011;4876;42.656;23.292;2022-11-20T08:09:02;7.30;;;1.80;;
9675;SDS011;4876;42.656;23.292;2022-11-20T08:11:29;8.03;;;1.60;;
9675;SDS011;4876;42.656;23.292;2022-11-20T08:14:13;5.63;;;1.60;;
9675;SDS011;4876;42.656;23.292;2022-11-20T08:16:41;6.63;;;1.73;;
9675;SDS011;4876;42.656;23.292;2022-11-20T08:19:09;5.43;;;2.17;;
9675;SDS011;4876;42.656;23.292;2022-11-20T08:21:36;4.57;;;2.00;;
9675;SDS011;4876;42.656;23.292;2022-11-20T08:24:05;4.57;;;1.60;;
9675;SDS011;4876;42.656;23.292;2022-11-20T08:26:32;8.33;;;2.13;;
9675;SDS011;4876;42.656;23.292;2022-11-20T08:28:59;4.77;;;1.83;;
9675;SDS011;4876;42.656;23.292;2022-11-20T08:31:26;7.23;;;1.63;;
9675;SDS011;4876;42.656;23.292;2022-11-20T08:33:54;4.23;;;1.40;;
9675;SDS011;4876;42.656;23.292;2022-11-20T08:36:21;11.40;;;1.63;;
9675;SDS011;4876;42.656;23.292;2022-11-20T08:38:48;8.17;;;1.53;;
9675;SDS011;4876;42.656;23.292;2022-11-20T08:41:17;5.30;;;2.47;;
9675;SDS011;4876;42.656;23.292;2022-11-20T08:43:52;5.60;;;1.73;;
9675;SDS011;4876;42.656;23.292;2022-11-20T08:46:22;12.57;;;2.33;;
9675;SDS011;4876;42.656;23.292;2022-11-20T08:48:49;7.57;;;2.40;;
9675;SDS011;4876;42.656;23.292;2022-11-20T08:51:16;10.40;;;3.07;;
9675;SDS011;4876;42.656;23.292;2022-11-20T08:53:43;3.77;;;1.83;;
9675;SDS011;4876;42.656;23.292;2022-11-20T08:56:10;7.53;;;2.50;;
9675;SDS011;4876;42.656;23.292;2022-11-20T08:58:38;8.50;;;2.67;;
9675;SDS011;4876;42.656;23.292;2022-11-20T09:01:06;8.20;;;2.70;;
9675;SDS011;4876;42.656;23.292;2022-11-20T09:03:33;5.97;;;2.57;;
9675;SDS011;4876;42.656;23.292;2022-11-20T09:06:00;8.37;;;3.20;;
9675;SDS011;4876;42.656;23.292;2022-11-20T09:08:28;10.43;;;2.90;;
9675;SDS011;4876;42.656;23.292;2022-11-20T09:10:55;8.93;;;2.60;;
9675;SDS011;4876;42.656;23.292;2022-11-20T09:13:23;8.47;;;2.73;;
9675;SDS011;4876;42.656;23.292;2022-11-20T09:15:55;2.93;;;2.20;;
9675;SDS011;4876;42.656;23.292;2022-11-20T09:18:23;7.50;;;2.57;;
9675;SDS011;4876;42.656;23.292;2022-11-20T09:20:50;3.30;;;1.77;;
9675;SDS011;4876;42.656;23.292;2022-11-20T09:23:17;4.80;;;2.10;;
9675;SDS011;4876;42.656;23.292;2022-11-20T09:25:44;5.30;;;1.47;;
9675;SDS011;4876;42.656;23.292;2022-11-20T09:28:11;4.17;;;1.50;;
9675;SDS011;4876;42.656;23.292;2022-11-20T09:30:38;2.97;;;1.47;;
9675;SDS011;4876;42.656;23.292;2022-11-20T09:33:06;6.73;;;1.87;;
9675;SDS011;4876;42.656;23.292;2022-11-20T09:35:35;5.97;;;1.70;;
9675;SDS011;4876;42.656;23.292;2022-11-20T09:38:05;3.13;;;1.60;;
9675;SDS011;4876;42.656;23.292;2022-11-20T09:40:32;5.63;;;1.30;;
9675;SDS011;4876;42.656;23.292;2022-11-20T09:43:02;4.90;;;1.70;;
9675;SDS011;4876;42.656;23.292;2022-11-20T09:45:39;6.93;;;1.70;;
9675;SDS011;4876;42.656;23.292;2022-11-20T09:48:30;7.50;;;1.50;;
9675;SDS011;4876;42.656;23.292;2022-11-20T09:51:12;3.13;;;1.67;;
9675;SDS011;4876;42.656;23.292;2022-11-20T09:53:51;3.70;;;1.63;;
9675;SDS011;4876;42.656;23.292;2022-11-20T09:56:28;6.03;;;2.23;;
9675;SDS011;4876;42.656;23.292;2022-11-20T09:58:57;4.50;;;2.03;;
9675;SDS011;4876;42.656;23.292;2022-11-20T10:01:29;5.87;;;2.47;;
9675;SDS011;4876;42.656;23.292;2022-11-20T10:04:00;4.90;;;2.63;;
9675;SDS011;4876;42.656;23.292;2022-11-20T10:06:30;4.00;;;2.10;;
9675;SDS011;4876;42.656;23.292;2022-11-20T10:09:01;9.93;;;2.60;;
9675;SDS011;4876;42.656;23.292;2022-11-20T10:11:42;2.27;;;1.60;;
9675;SDS011;4876;42.656;23.292;2022-11-20T10:14:16;4.43;;;2.60;;
9675;SDS011;4876;42.656;23.292;2022-11-20T10:16:54;6.67;;;2.70;;
9675;SDS011;4876;42.656;23.292;2022-11-20T10:19:42;2.40;;;1.70;;
9675;SDS011;4876;42.656;23.292;2022-11-20T10:22:28;6.43;;;2.07;;
9675;SDS011;4876;42.656;23.292;2022-11-20T10:25:06;8.50;;;2.90;;
9675;SDS011;4876;42.656;23.292;2022-11-20T10:27:44;9.80;;;2.93;;
9675;SDS011;4876;42.656;23.292;2022-11-20T10:30:31;5.43;;;1.93;;
9675;SDS011;4876;42.656;23.292;2022-11-20T10:33:04;6.23;;;1.77;;
9675;SDS011;4876;42.656;23.292;2022-11-20T10:35:40;6.33;;;2.10;;
9675;SDS011;4876;42.656;23.292;2022-11-20T10:38:12;5.47;;;2.77;;
9675;SDS011;4876;42.656;23.292;2022-11-20T10:40:48;9.47;;;3.33;;
9675;SDS011;4876;42.656;23.292;2022-11-20T10:43:39;6.87;;;3.53;;
9675;SDS011;4876;42.656;23.292;2022-11-20T10:46:10;6.87;;;3.77;;
9675;SDS011;4876;42.656;23.292;2022-11-20T10:48:44;10.43;;;3.27;;
9675;SDS011;4876;42.656;23.292;2022-11-20T10:51:18;11.37;;;3.70;;
9675;SDS011;4876;42.656;23.292;2022-11-20T10:53:57;5.57;;;3.33;;
9675;SDS011;4876;42.656;23.292;2022-11-20T10:56:35;20.63;;;4.67;;
9675;SDS011;4876;42.656;23.292;2022-11-20T11:02:16;12.43;;;3.93;;
9675;SDS011;4876;42.656;23.292;2022-11-20T11:04:45;21.00;;;5.47;;
9675;SDS011;4876;42.656;23.292;2022-11-20T11:07:16;12.70;;;4.83;;
9675;SDS011;4876;42.656;23.292;2022-11-20T11:09:47;12.30;;;5.63;;
9675;SDS011;4876;42.656;23.292;2022-11-20T11:12:15;8.03;;;3.80;;
9675;SDS011;4876;42.656;23.292;2022-11-20T11:14:46;2.63;;;1.30;;
9675;SDS011;4876;42.656;23.292;2022-11-20T11:17:22;3.13;;;1.20;;
9675;SDS011;4876;42.656;23.292;2022-11-20T11:19:59;4.97;;;1.40;;
9675;SDS011;4876;42.656;23.292;2022-11-20T11:22:29;2.23;;;1.47;;
9675;SDS011;4876;42.656;23.292;2022-11-20T11:24:57;3.40;;;1.10;;
9675;SDS011;4876;42.656;23.292;2022-11-20T11:27:24;3.13;;;1.00;;
9675;SDS011;4876;42.656;23.292;2022-11-20T11:30:01;3.17;;;1.10;;
9675;SDS011;4876;42.656;23.292;2022-11-20T11:32:40;1.97;;;1.00;;
9675;SDS011;4876;42.656;23.292;2022-11-20T11:35:18;1.50;;;0.83;;
9675;SDS011;4876;42.656;23.292;2022-11-20T11:37:49;2.27;;;1.00;;
9675;SDS011;4876;42.656;23.292;2022-11-20T11:40:19;2.63;;;1.00;;
9675;SDS011;4876;42.656;23.292;2022-11-20T11:42:50;4.53;;;1.33;;
9675;SDS011;4876;42.656;23.292;2022-11-20T11:45:20;1.13;;;0.80;;
9675;SDS011;4876;42.656;23.292;2022-11-20T11:47:47;1.73;;;1.00;;
9675;SDS011;4876;42.656;23.292;2022-11-20T11:50:18;5.83;;;2.13;;
9675;SDS011;4876;42.656;23.292;2022-11-20T11:52:55;4.33;;;0.97;;
9675;SDS011;4876;42.656;23.292;2022-11-20T11:55:29;6.67;;;1.33;;
9675;SDS011;4876;42.656;23.292;2022-11-20T11:58:04;5.03;;;1.30;;
9675;SDS011;4876;42.656;23.292;2022-11-20T12:00:38;5.43;;;1.10;;
9675;SDS011;4876;42.656;23.292;2022-11-20T12:03:09;4.27;;;1.57;;
9675;SDS011;4876;42.656;23.292;2022-11-20T12:05:45;7.07;;;1.30;;
9675;SDS011;4876;42.656;23.292;2022-11-20T12:08:21;6.40;;;1.43;;
9675;SDS011;4876;42.656;23.292;2022-11-20T12:10:56;4.23;;;1.50;;
9675;SDS011;4876;42.656;23.292;2022-11-20T12:16:13;5.43;;;1.00;;
9675;SDS011;4876;42.656;23.292;2022-11-20T12:18:42;2.60;;;1.00;;
9675;SDS011;4876;42.656;23.292;2022-11-20T12:21:12;3.13;;;0.90;;
9675;SDS011;4876;42.656;23.292;2022-11-20T12:23:52;5.10;;;0.67;;
9675;SDS011;4876;42.656;23.292;2022-11-20T12:26:32;5.27;;;1.20;;
9675;SDS011;4876;42.656;23.292;2022-11-20T12:29:09;1.63;;;0.70;;
9675;SDS011;4876;42.656;23.292;2022-11-20T12:31:49;5.20;;;1.10;;
9675;SDS011;4876;42.656;23.292;2022-11-20T12:34:27;2.40;;;1.30;;
9675;SDS011;4876;42.656;23.292;2022-11-20T12:37:08;1.17;;;0.90;;
9675;SDS011;4876;42.656;23.292;2022-11-20T12:39:46;2.50;;;1.20;;
9675;SDS011;4876;42.656;23.292;2022-11-20T12:42:19;4.57;;;1.30;;
9675;SDS011;4876;42.656;23.292;2022-11-20T12:48:40;6.50;;;1.50;;
9675;SDS011;4876;42.656;23.292;2022-11-20T12:57:18;4.70;;;1.50;;
9675;SDS011;4876;42.656;23.292;2022-11-20T13:00:07;5.77;;;1.23;;
9675;SDS011;4876;42.656;23.292;2022-11-20T13:02:44;4.43;;;1.23;;
9675;SDS011;4876;42.656;23.292;2022-11-20T13:05:26;2.10;;;1.63;;
9675;SDS011;4876;42.656;23.292;2022-11-20T13:08:02;7.27;;;2.40;;
9675;SDS011;4876;42.656;23.292;2022-11-20T13:10:32;5.43;;;1.77;;
9675;SDS011;4876;42.656;23.292;2022-11-20T13:13:13;6.53;;;2.60;;
9675;SDS011;4876;42.656;23.292;2022-11-20T13:15:46;8.27;;;2.80;;
9675;SDS011;4876;42.656;23.292;2022-11-20T13:18:17;2.10;;;1.67;;
9675;SDS011;4876;42.656;23.292;2022-11-20T13:20:45;8.10;;;2.73;;
9675;SDS011;4876;42.656;23.292;2022-11-20T13:23:22;5.50;;;3.10;;
9675;SDS011;4876;42.656;23.292;2022-11-20T13:26:02;8.23;;;3.23;;
9675;SDS011;4876;42.656;23.292;2022-11-20T13:28:29;5.93;;;2.87;;
9675;SDS011;4876;42.656;23.292;2022-11-20T13:30:57;4.17;;;2.40;;
9675;SDS011;4876;42.656;23.292;2022-11-20T13:33:27;4.80;;;2.70;;
9675;SDS011;4876;42.656;23.292;2022-11-20T13:35:57;7.23;;;3.87;;
9675;SDS011;4876;42.656;23.292;2022-11-20T13:38:26;7.67;;;3.30;;
9675;SDS011;4876;42.656;23.292;2022-11-20T13:40:55;5.37;;;3.43;;
9675;SDS011;4876;42.656;23.292;2022-11-20T13:43:26;6.53;;;3.10;;
9675;SDS011;4876;42.656;23.292;2022-11-20T13:46:00;6.77;;;3.00;;
9675;SDS011;4876;42.656;23.292;2022-11-20T13:48:30;10.33;;;3.87;;
9675;SDS011;4876;42.656;23.292;2022-11-20T13:51:04;10.50;;;4.30;;
9675;SDS011;4876;42.656;23.292;2022-11-20T13:53:43;6.57;;;4.03;;
9675;SDS011;4876;42.656;23.292;2022-11-20T13:56:33;8.90;;;3.97;;
9675;SDS011;4876;42.656;23.292;2022-11-20T13:59:08;7.10;;;4.13;;
9675;SDS011;4876;42.656;23.292;2022-11-20T14:01:44;9.03;;;5.03;;
9675;SDS011;4876;42.656;23.292;2022-11-20T14:04:14;9.87;;;5.03;;
9675;SDS011;4876;42.656;23.292;2022-11-20T14:06:45;7.17;;;4.90;;
9675;SDS011;4876;42.656;23.292;2022-11-20T14:09:24;11.93;;;5.27;;
9675;SDS011;4876;42.656;23.292;2022-11-20T14:11:53;9.53;;;4.60;;
9675;SDS011;4876;42.656;23.292;2022-11-20T14:14:20;12.60;;;4.93;;
9675;SDS011;4876;42.656;23.292;2022-11-20T14:16:49;6.33;;;3.83;;
9675;SDS011;4876;42.656;23.292;2022-11-20T14:22:08;6.87;;;3.70;;
9675;SDS011;4876;42.656;23.292;2022-11-20T14:24:41;11.40;;;4.50;;
9675;SDS011;4876;42.656;23.292;2022-11-20T14:27:13;8.27;;;4.20;;
9675;SDS011;4876;42.656;23.292;2022-11-20T14:29:42;8.43;;;2.40;;
9675;SDS011;4876;42.656;23.292;2022-11-20T14:32:10;4.97;;;3.07;;
9675;SDS011;4876;42.656;23.292;2022-11-20T14:34:41;5.90;;;3.10;;
9675;SDS011;4876;42.656;23.292;2022-11-20T14:37:11;4.70;;;2.50;;
9675;SDS011;4876;42.656;23.292;2022-11-20T14:39:40;6.87;;;2.80;;
9675;SDS011;4876;42.656;23.292;2022-11-20T14:42:16;7.40;;;2.90;;
9675;SDS011;4876;42.656;23.292;2022-11-20T14:44:45;3.60;;;1.90;;
9675;SDS011;4876;42.656;23.292;2022-11-20T14:47:14;4.97;;;2.00;;
9675;SDS011;4876;42.656;23.292;2022-11-20T14:49:45;2.43;;;1.70;;
9675;SDS011;4876;42.656;23.292;2022-11-20T14:52:14;3.37;;;1.90;;
9675;SDS011;4876;42.656;23.292;2022-11-20T14:54:43;8.50;;;1.77;;
9675;SDS011;4876;42.656;23.292;2022-11-20T14:57:21;5.13;;;2.20;;
9675;SDS011;4876;42.656;23.292;2022-11-20T14:59:49;3.67;;;1.87;;
9675;SDS011;4876;42.656;23.292;2022-11-20T15:02:17;4.97;;;2.23;;
9675;SDS011;4876;42.656;23.292;2022-11-20T15:04:45;9.47;;;1.90;;
9675;SDS011;4876;42.656;23.292;2022-11-20T15:07:22;2.73;;;2.33;;
9675;SDS011;4876;42.656;23.292;2022-11-20T15:09:58;5.97;;;2.00;;
9675;SDS011;4876;42.656;23.292;2022-11-20T15:12:27;4.03;;;2.33;;
9675;SDS011;4876;42.656;23.292;2022-11-20T15:14:56;3.23;;;2.30;;
9675;SDS011;4876;42.656;23.292;2022-11-20T15:17:23;4.23;;;2.70;;
9675;SDS011;4876;42.656;23.292;2022-11-20T15:19:50;2.80;;;1.87;;
9675;SDS011;4876;42.656;23.292;2022-11-20T15:22:17;5.70;;;2.27;;
9675;SDS011;4876;42.656;23.292;2022-11-20T15:24:44;4.03;;;2.03;;
9675;SDS011;4876;42.656;23.292;2022-11-20T15:27:11;4.37;;;2.37;;
9675;SDS011;4876;42.656;23.292;2022-11-20T15:29:39;3.83;;;2.27;;
9675;SDS011;4876;42.656;23.292;2022-11-20T15:32:07;4.67;;;2.60;;
9675;SDS011;4876;42.656;23.292;2022-11-20T15:34:34;3.60;;;2.40;;
9675;SDS011;4876;42.656;23.292;2022-11-20T15:37:01;3.97;;;2.83;;